Time;durP1;ratioP1;P1;durP2;ratioP2;P2;SDS_P1;SDS_P2;PMS_P1;PMS_P2;Temp;Humidity;BMP_temperature;BMP_pressure;BME280_temperature;BME280_humidity;BME280_pressure;Samples;Min_cycle;Max_cycle;Signal;HPM_P1;HPM_P2
2023/12/06 00:01:16;;;;;;;49.08;17.30;;;;;;;;;;5024551;28;20448;-59
2023/12/06 00:03:42;;;;;;;56.93;18.47;;;;;;;;;;5025037;28;20064;-59
2023/12/06 00:06:07;;;;;;;47.35;18.73;;;;;;;;;;5027407;28;20439;-59
2023/12/06 00:08:33;;;;;;;46.23;17.83;;;;;;;;;;5025228;28;20037;-59
2023/12/06 00:10:59;;;;;;;51.55;18.50;;;;;;;;;;5022882;28;20021;-59
2023/12/06 00:13:24;;;;;;;49.50;18.85;;;;;;;;;;5025451;28;20033;-59
2023/12/06 00:15:49;;;;;;;47.22;18.35;;;;;;;;;;5022610;28;20025;-59
2023/12/06 00:18:15;;;;;;;49.03;18.15;;;;;;;;;;5027316;28;20405;-59
2023/12/06 00:20:40;;;;;;;49.63;18.27;;;;;;;;;;5018877;28;20076;-59
2023/12/06 00:23:05;;;;;;;45.85;17.60;;;;;;;;;;5025588;28;20045;-59
2023/12/06 00:25:30;;;;;;;51.78;19.52;;;;;;;;;;5023430;28;20092;-58
2023/12/06 00:27:55;;;;;;;56.03;20.43;;;;;;;;;;5025414;28;20029;-59
2023/12/06 00:30:20;;;;;;;51.10;19.38;;;;;;;;;;5031901;28;20021;-59
2023/12/06 00:32:46;;;;;;;51.67;19.63;;;;;;;;;;5023210;28;20037;-59
2023/12/06 00:35:11;;;;;;;54.07;19.67;;;;;;;;;;5027019;28;20018;-59
2023/12/06 00:37:36;;;;;;;56.27;19.60;;;;;;;;;;5022769;28;20049;-58
2023/12/06 00:40:01;;;;;;;53.33;19.55;;;;;;;;;;5032456;28;20028;-59
2023/12/06 00:42:26;;;;;;;54.40;19.50;;;;;;;;;;5028366;28;20101;-59
2023/12/06 00:44:51;;;;;;;52.67;18.90;;;;;;;;;;5021606;28;20022;-59
2023/12/06 00:47:16;;;;;;;53.40;20.83;;;;;;;;;;5023216;28;20033;-58
2023/12/06 00:49:42;;;;;;;56.08;19.75;;;;;;;;;;5025737;28;20059;-58
2023/12/06 00:52:07;;;;;;;55.50;20.98;;;;;;;;;;5025993;28;20069;-59
2023/12/06 00:54:32;;;;;;;59.97;20.47;;;;;;;;;;5031239;28;20022;-59
2023/12/06 00:56:57;;;;;;;53.65;20.23;;;;;;;;;;5017100;28;20436;-59
2023/12/06 00:59:22;;;;;;;53.70;19.80;;;;;;;;;;5029230;28;20024;-59
2023/12/06 01:01:47;;;;;;;56.17;20.25;;;;;;;;;;5029140;28;20060;-59
2023/12/06 01:04:12;;;;;;;54.65;20.30;;;;;;;;;;5025053;28;20054;-59
2023/12/06 01:06:38;;;;;;;61.08;21.95;;;;;;;;;;5025181;28;20030;-60
2023/12/06 01:09:03;;;;;;;56.03;20.67;;;;;;;;;;5022506;28;20481;-59
2023/12/06 01:11:28;;;;;;;54.45;20.33;;;;;;;;;;5026121;28;20049;-59
2023/12/06 01:13:53;;;;;;;56.70;21.30;;;;;;;;;;5022801;28;20088;-58
2023/12/06 01:16:19;;;;;;;52.75;20.73;;;;;;;;;;5023803;28;20029;-59
2023/12/06 01:18:45;;;;;;;53.28;20.58;;;;;;;;;;5023989;28;20413;-59
2023/12/06 01:21:10;;;;;;;55.87;20.57;;;;;;;;;;5026020;28;20048;-58
2023/12/06 01:23:35;;;;;;;53.27;19.83;;;;;;;;;;5030233;28;20033;-58
2023/12/06 01:26:00;;;;;;;56.67;20.17;;;;;;;;;;5024380;28;20124;-59
2023/12/06 01:28:25;;;;;;;50.67;19.33;;;;;;;;;;5020319;28;20025;-58
2023/12/06 01:30:50;;;;;;;53.77;20.77;;;;;;;;;;5025086;28;20025;-58
2023/12/06 01:33:16;;;;;;;52.80;21.80;;;;;;;;;;5029406;28;20120;-58
2023/12/06 01:35:41;;;;;;;52.75;20.58;;;;;;;;;;5030284;28;20025;-58
2023/12/06 01:38:06;;;;;;;54.05;20.42;;;;;;;;;;5020025;28;20163;-57
2023/12/06 01:40:33;;;;;;;48.03;18.67;;;;;;;;;;5028110;28;20044;-58
2023/12/06 01:42:58;;;;;;;49.65;19.15;;;;;;;;;;5027759;28;20561;-59
2023/12/06 01:45:24;;;;;;;49.72;18.35;;;;;;;;;;5022415;28;20168;-59
2023/12/06 01:47:49;;;;;;;49.70;18.67;;;;;;;;;;5021319;28;20397;-58
2023/12/06 01:50:15;;;;;;;49.80;19.42;;;;;;;;;;5029309;28;20545;-58
2023/12/06 01:52:40;;;;;;;52.03;19.05;;;;;;;;;;5023197;28;20033;-58
2023/12/06 01:55:05;;;;;;;45.13;17.50;;;;;;;;;;5023689;28;20389;-58
2023/12/06 01:57:30;;;;;;;46.28;17.85;;;;;;;;;;5021792;28;20465;-58
2023/12/06 01:59:56;;;;;;;45.93;17.57;;;;;;;;;;5023660;28;20501;-59
2023/12/06 02:02:22;;;;;;;46.50;18.50;;;;;;;;;;5024928;28;20079;-58
2023/12/06 02:04:48;;;;;;;50.42;19.65;;;;;;;;;;5021491;28;20053;-58
2023/12/06 02:07:15;;;;;;;50.58;19.42;;;;;;;;;;5021297;28;20028;-58
2023/12/06 02:09:40;;;;;;;46.20;18.30;;;;;;;;;;5028621;28;20079;-59
2023/12/06 02:12:05;;;;;;;48.57;18.93;;;;;;;;;;5028600;28;20033;-59
2023/12/06 02:14:35;;;;;;;49.95;19.38;;;;;;;;;;5022318;28;20474;-58
2023/12/06 02:17:02;;;;;;;49.53;19.00;;;;;;;;;;5024735;28;20022;-59
2023/12/06 02:19:27;;;;;;;47.70;18.05;;;;;;;;;;5021854;28;20025;-58
2023/12/06 02:21:53;;;;;;;49.72;18.38;;;;;;;;;;5029572;28;20047;-58
2023/12/06 02:24:18;;;;;;;45.55;18.27;;;;;;;;;;5031473;28;20061;-59
2023/12/06 02:26:44;;;;;;;49.67;19.52;;;;;;;;;;5024889;28;20025;-59
2023/12/06 02:29:09;;;;;;;47.57;18.97;;;;;;;;;;5022383;28;20033;-59
2023/12/06 02:31:34;;;;;;;46.35;18.10;;;;;;;;;;5026138;28;20072;-58
2023/12/06 02:34:01;;;;;;;46.75;18.58;;;;;;;;;;5026971;28;20405;-59
2023/12/06 02:36:27;;;;;;;48.13;17.80;;;;;;;;;;5021998;28;20090;-59
2023/12/06 02:38:53;;;;;;;47.45;18.60;;;;;;;;;;5018796;28;20107;-58
2023/12/06 02:41:18;;;;;;;48.03;18.90;;;;;;;;;;5025424;28;20620;-59
2023/12/06 02:43:44;;;;;;;49.83;19.65;;;;;;;;;;5027474;28;20397;-59
2023/12/06 02:46:10;;;;;;;50.97;19.08;;;;;;;;;;5019382;28;20080;-58
2023/12/06 02:48:35;;;;;;;50.10;18.27;;;;;;;;;;5029377;28;20053;-59
2023/12/06 02:51:00;;;;;;;52.17;18.77;;;;;;;;;;5026765;28;20028;-59
2023/12/06 02:53:25;;;;;;;48.88;19.42;;;;;;;;;;5020358;28;20069;-59
2023/12/06 02:55:50;;;;;;;52.83;19.88;;;;;;;;;;5021810;28;20014;-58
2023/12/06 02:58:15;;;;;;;50.67;18.42;;;;;;;;;;5024777;28;20030;-59
2023/12/06 03:00:40;;;;;;;47.90;19.60;;;;;;;;;;5029267;28;20172;-58
2023/12/06 03:03:06;;;;;;;45.47;17.60;;;;;;;;;;5022389;28;20021;-58
2023/12/06 03:05:31;;;;;;;47.57;17.50;;;;;;;;;;5023257;28;20448;-58
2023/12/06 03:07:56;;;;;;;46.15;17.42;;;;;;;;;;5016780;28;20025;-58
2023/12/06 03:10:21;;;;;;;47.97;17.70;;;;;;;;;;5029985;28;20030;-59
2023/12/06 03:12:46;;;;;;;46.23;18.00;;;;;;;;;;5019020;28;20064;-58
2023/12/06 03:15:11;;;;;;;47.70;17.92;;;;;;;;;;5026932;28;20017;-59
2023/12/06 03:17:37;;;;;;;45.00;16.83;;;;;;;;;;5020864;28;20024;-59
2023/12/06 03:20:04;;;;;;;43.37;16.83;;;;;;;;;;5028044;28;20029;-59
2023/12/06 03:22:29;;;;;;;53.70;19.00;;;;;;;;;;5021817;28;20056;-59
2023/12/06 03:24:54;;;;;;;48.30;17.50;;;;;;;;;;5019432;28;20477;-58
2023/12/06 03:27:19;;;;;;;44.93;17.23;;;;;;;;;;5025912;28;20072;-59
2023/12/06 03:29:45;;;;;;;51.10;18.17;;;;;;;;;;5026508;28;20488;-59
2023/12/06 03:32:10;;;;;;;46.53;18.83;;;;;;;;;;5024086;28;20426;-59
2023/12/06 03:34:35;;;;;;;47.10;18.15;;;;;;;;;;5024171;28;20018;-59
2023/12/06 03:37:02;;;;;;;45.20;18.10;;;;;;;;;;5025674;28;20026;-59
2023/12/06 03:39:27;;;;;;;47.33;17.38;;;;;;;;;;5033329;28;20061;-59
2023/12/06 03:41:53;;;;;;;41.05;17.08;;;;;;;;;;5029455;28;20050;-58
2023/12/06 03:44:18;;;;;;;46.13;17.77;;;;;;;;;;5032765;28;20474;-60
2023/12/06 03:46:43;;;;;;;46.35;17.42;;;;;;;;;;5028591;28;20087;-60
2023/12/06 03:49:08;;;;;;;44.53;17.20;;;;;;;;;;5032411;28;20389;-60
2023/12/06 03:51:34;;;;;;;46.17;17.57;;;;;;;;;;5031853;28;20021;-59
2023/12/06 03:53:59;;;;;;;41.78;16.35;;;;;;;;;;5024184;28;20025;-57
2023/12/06 03:56:24;;;;;;;46.28;18.83;;;;;;;;;;5027279;28;20519;-60
2023/12/06 03:58:49;;;;;;;42.92;17.08;;;;;;;;;;5021068;28;20029;-60
2023/12/06 04:01:14;;;;;;;42.60;16.88;;;;;;;;;;5020424;28;20041;-59
2023/12/06 04:03:40;;;;;;;45.92;17.52;;;;;;;;;;5026155;28;20493;-58
2023/12/06 04:06:06;;;;;;;46.83;18.80;;;;;;;;;;5029903;28;20026;-58
2023/12/06 04:08:31;;;;;;;49.28;18.65;;;;;;;;;;5029729;28;20045;-60
2023/12/06 04:10:56;;;;;;;49.07;18.37;;;;;;;;;;5035092;28;20021;-59
2023/12/06 04:13:22;;;;;;;47.07;17.60;;;;;;;;;;5028742;28;20033;-59
2023/12/06 04:15:47;;;;;;;47.13;17.85;;;;;;;;;;5028905;28;20101;-59
2023/12/06 04:18:13;;;;;;;49.13;18.10;;;;;;;;;;5029536;28;20025;-59
2023/12/06 04:20:38;;;;;;;44.35;16.60;;;;;;;;;;5034621;28;20017;-59
2023/12/06 04:23:03;;;;;;;46.08;16.95;;;;;;;;;;5032824;28;20021;-59
2023/12/06 04:25:28;;;;;;;45.92;17.38;;;;;;;;;;5032031;28;20034;-59
2023/12/06 04:27:53;;;;;;;41.53;16.00;;;;;;;;;;5019232;28;20033;-59
2023/12/06 04:30:18;;;;;;;44.45;17.30;;;;;;;;;;5030524;28;20022;-59
2023/12/06 04:32:43;;;;;;;46.42;17.85;;;;;;;;;;5032607;28;20112;-60
2023/12/06 04:35:09;;;;;;;47.25;17.13;;;;;;;;;;5021904;28;20512;-59
2023/12/06 04:37:34;;;;;;;45.35;16.67;;;;;;;;;;5034158;28;20021;-60
2023/12/06 04:40:00;;;;;;;47.63;17.70;;;;;;;;;;5033000;28;20330;-59
2023/12/06 04:42:25;;;;;;;43.90;16.73;;;;;;;;;;5027817;28;20026;-60
2023/12/06 04:44:50;;;;;;;44.42;16.83;;;;;;;;;;5026500;28;20128;-59
2023/12/06 04:47:15;;;;;;;46.75;16.50;;;;;;;;;;5028821;28;20041;-60
2023/12/06 04:49:40;;;;;;;42.55;16.10;;;;;;;;;;5025642;28;20020;-60
2023/12/06 04:52:05;;;;;;;46.05;17.23;;;;;;;;;;5029004;28;20069;-60
2023/12/06 04:54:31;;;;;;;44.23;16.43;;;;;;;;;;5024154;28;20014;-60
2023/12/06 04:56:56;;;;;;;44.50;17.07;;;;;;;;;;5020258;28;20509;-59
2023/12/06 04:59:21;;;;;;;45.47;16.27;;;;;;;;;;5028120;28;20021;-59
2023/12/06 05:01:46;;;;;;;47.55;17.48;;;;;;;;;;5025454;28;20025;-60
2023/12/06 05:04:11;;;;;;;47.40;18.23;;;;;;;;;;5025248;28;20026;-59
2023/12/06 05:06:37;;;;;;;46.77;16.07;;;;;;;;;;5025702;28;20023;-60
2023/12/06 05:09:02;;;;;;;47.23;17.07;;;;;;;;;;5022130;28;20045;-59
2023/12/06 05:11:27;;;;;;;45.17;17.70;;;;;;;;;;5026574;28;20021;-59
2023/12/06 05:13:52;;;;;;;46.70;17.63;;;;;;;;;;5018211;28;20017;-59
2023/12/06 05:16:17;;;;;;;42.43;16.27;;;;;;;;;;5028564;28;20096;-59
2023/12/06 05:18:42;;;;;;;44.92;16.88;;;;;;;;;;5023472;28;20528;-59
2023/12/06 05:21:08;;;;;;;49.03;18.03;;;;;;;;;;5024358;28;20484;-60
2023/12/06 05:23:33;;;;;;;45.08;17.45;;;;;;;;;;5031037;28;20029;-59
2023/12/06 05:25:58;;;;;;;45.73;16.60;;;;;;;;;;5029895;28;20013;-60
2023/12/06 05:28:23;;;;;;;42.07;15.63;;;;;;;;;;5024104;28;20063;-59
2023/12/06 05:30:49;;;;;;;45.10;17.00;;;;;;;;;;5022731;28;20040;-59
2023/12/06 05:33:15;;;;;;;42.28;16.40;;;;;;;;;;5019300;28;20467;-58
2023/12/06 05:35:40;;;;;;;42.97;14.65;;;;;;;;;;5021597;28;20068;-60
2023/12/06 05:38:05;;;;;;;44.95;16.52;;;;;;;;;;5026131;28;20036;-59
2023/12/06 05:40:31;;;;;;;43.13;16.65;;;;;;;;;;5024529;28;20030;-60
2023/12/06 05:42:56;;;;;;;41.75;15.95;;;;;;;;;;5015901;28;20528;-60
2023/12/06 05:45:21;;;;;;;39.85;15.20;;;;;;;;;;5022671;28;20313;-60
2023/12/06 05:47:46;;;;;;;43.75;16.80;;;;;;;;;;5020872;28;20101;-58
2023/12/06 05:50:13;;;;;;;41.15;16.35;;;;;;;;;;5019993;28;20049;-59
2023/12/06 05:52:38;;;;;;;50.53;17.33;;;;;;;;;;5022296;28;20037;-59
2023/12/06 05:55:03;;;;;;;40.87;16.37;;;;;;;;;;5023348;28;20032;-61
2023/12/06 05:57:28;;;;;;;43.80;15.30;;;;;;;;;;5023254;28;20071;-59
2023/12/06 05:59:54;;;;;;;42.58;16.25;;;;;;;;;;5016769;28;20056;-60
2023/12/06 06:02:19;;;;;;;43.47;17.60;;;;;;;;;;5018061;28;20041;-59
2023/12/06 06:04:44;;;;;;;39.60;16.07;;;;;;;;;;5025330;28;20091;-58
2023/12/06 06:07:09;;;;;;;42.93;16.83;;;;;;;;;;5017702;28;20036;-59
2023/12/06 06:09:35;;;;;;;44.30;16.40;;;;;;;;;;5022409;28;20024;-60
2023/12/06 06:12:00;;;;;;;41.83;15.63;;;;;;;;;;5020363;28;20014;-60
2023/12/06 06:14:26;;;;;;;46.72;17.27;;;;;;;;;;5022014;28;20034;-58
2023/12/06 06:16:51;;;;;;;46.63;17.23;;;;;;;;;;5024470;28;20105;-58
2023/12/06 06:19:16;;;;;;;41.65;16.40;;;;;;;;;;5020198;28;20024;-58
2023/12/06 06:21:42;;;;;;;40.53;16.60;;;;;;;;;;5024345;28;20029;-58
2023/12/06 06:24:09;;;;;;;38.20;15.13;;;;;;;;;;5023742;28;20053;-59
2023/12/06 06:26:34;;;;;;;42.47;17.15;;;;;;;;;;5012383;28;20736;-58
2023/12/06 06:28:59;;;;;;;38.42;14.85;;;;;;;;;;5022008;28;20010;-58
2023/12/06 06:31:25;;;;;;;42.33;16.03;;;;;;;;;;5022479;28;20032;-58
2023/12/06 06:33:50;;;;;;;42.60;16.03;;;;;;;;;;5030226;28;20017;-59
2023/12/06 06:36:15;;;;;;;38.53;15.38;;;;;;;;;;5022836;28;20022;-59
2023/12/06 06:38:42;;;;;;;39.63;16.23;;;;;;;;;;5023729;28;20477;-60
2023/12/06 06:41:07;;;;;;;41.28;16.35;;;;;;;;;;5025215;28;20041;-62
2023/12/06 06:43:32;;;;;;;40.83;15.45;;;;;;;;;;5025053;28;20029;-59
2023/12/06 06:45:58;;;;;;;39.50;14.45;;;;;;;;;;5024674;28;20025;-61
2023/12/06 06:48:23;;;;;;;38.92;15.40;;;;;;;;;;5017362;28;20441;-58
2023/12/06 06:50:48;;;;;;;38.22;15.68;;;;;;;;;;5020787;28;20032;-58
2023/12/06 06:53:13;;;;;;;40.53;17.33;;;;;;;;;;5024701;28;20053;-58
2023/12/06 06:55:38;;;;;;;43.20;15.87;;;;;;;;;;5028505;28;20020;-59
2023/12/06 06:58:03;;;;;;;41.13;16.40;;;;;;;;;;5028911;28;20028;-58
2023/12/06 07:00:29;;;;;;;40.13;16.35;;;;;;;;;;5034000;28;20021;-59
2023/12/06 07:02:54;;;;;;;40.30;16.27;;;;;;;;;;5041021;28;20109;-61
2023/12/06 07:05:19;;;;;;;41.85;15.45;;;;;;;;;;5039362;28;20088;-60
2023/12/06 07:07:44;;;;;;;39.72;15.02;;;;;;;;;;5027661;28;20083;-59
2023/12/06 07:10:09;;;;;;;39.27;15.93;;;;;;;;;;5020426;28;20389;-59
2023/12/06 07:12:37;;;;;;;43.40;15.87;;;;;;;;;;5022227;28;20776;-59
2023/12/06 07:15:02;;;;;;;38.17;14.68;;;;;;;;;;5019353;28;20095;-60
2023/12/06 07:17:27;;;;;;;43.22;16.58;;;;;;;;;;5017159;28;20072;-59
2023/12/06 07:19:54;;;;;;;42.42;17.17;;;;;;;;;;5019876;28;20044;-60
2023/12/06 07:22:20;;;;;;;41.55;16.58;;;;;;;;;;5025094;28;20128;-60
2023/12/06 07:24:46;;;;;;;39.17;15.13;;;;;;;;;;5016022;28;20029;-60
2023/12/06 07:27:11;;;;;;;39.88;16.33;;;;;;;;;;5018370;28;20733;-59
2023/12/06 07:29:36;;;;;;;41.78;16.45;;;;;;;;;;5024203;28;20061;-60
2023/12/06 07:32:01;;;;;;;39.30;15.32;;;;;;;;;;5015411;28;20037;-59
2023/12/06 07:34:27;;;;;;;45.03;17.00;;;;;;;;;;5014933;28;20025;-60
2023/12/06 07:36:53;;;;;;;41.25;16.52;;;;;;;;;;5015030;28;20022;-60
2023/12/06 07:39:18;;;;;;;37.67;15.32;;;;;;;;;;5007392;28;20021;-61
2023/12/06 07:41:44;;;;;;;46.72;17.80;;;;;;;;;;5012204;28;20013;-60
2023/12/06 07:44:09;;;;;;;42.20;15.98;;;;;;;;;;5023509;28;20073;-60
2023/12/06 07:46:34;;;;;;;41.45;17.17;;;;;;;;;;5007118;28;20405;-60
2023/12/06 07:49:00;;;;;;;44.10;17.40;;;;;;;;;;5009347;28;20038;-60
2023/12/06 07:51:25;;;;;;;46.95;17.92;;;;;;;;;;5016741;28;20026;-59
2023/12/06 07:53:51;;;;;;;46.28;17.10;;;;;;;;;;5030210;28;20032;-59
2023/12/06 07:56:16;;;;;;;43.88;17.67;;;;;;;;;;5025543;28;20497;-59
2023/12/06 07:58:41;;;;;;;42.15;16.48;;;;;;;;;;5027552;28;20032;-59
2023/12/06 08:01:07;;;;;;;39.53;16.13;;;;;;;;;;5021862;28;20163;-59
2023/12/06 08:03:33;;;;;;;40.75;16.42;;;;;;;;;;5031639;28;20067;-60
2023/12/06 08:05:59;;;;;;;41.17;16.33;;;;;;;;;;5050176;28;20469;-59
2023/12/06 08:08:25;;;;;;;44.30;17.13;;;;;;;;;;5048520;28;20032;-59
2023/12/06 08:10:50;;;;;;;39.22;15.95;;;;;;;;;;5026588;28;20402;-59
2023/12/06 08:13:15;;;;;;;42.93;16.87;;;;;;;;;;5022010;28;20060;-60
2023/12/06 08:15:40;;;;;;;44.07;16.47;;;;;;;;;;5020582;28;20037;-59
2023/12/06 08:18:06;;;;;;;43.93;17.17;;;;;;;;;;5030320;28;20108;-60
2023/12/06 08:20:32;;;;;;;41.83;16.60;;;;;;;;;;5020741;28;20133;-60
2023/12/06 08:22:57;;;;;;;40.60;15.60;;;;;;;;;;5013129;28;20469;-59
2023/12/06 08:25:22;;;;;;;41.70;16.27;;;;;;;;;;5024266;28;20030;-59
2023/12/06 08:27:47;;;;;;;39.37;15.60;;;;;;;;;;5015506;28;21010;-59
2023/12/06 08:30:13;;;;;;;41.57;16.47;;;;;;;;;;5023605;28;20074;-60
2023/12/06 08:32:38;;;;;;;39.57;16.30;;;;;;;;;;5037931;28;20090;-60
2023/12/06 08:35:03;;;;;;;42.50;19.50;;;;;;;;;;5033819;28;20543;-59
2023/12/06 08:37:28;;;;;;;41.90;16.13;;;;;;;;;;5032478;28;20405;-63
2023/12/06 08:39:53;;;;;;;44.93;17.93;;;;;;;;;;5023112;28;20610;-60
2023/12/06 08:42:19;;;;;;;38.53;15.80;;;;;;;;;;5019201;28;20033;-60
2023/12/06 08:44:44;;;;;;;40.70;16.85;;;;;;;;;;5018444;28;20027;-59
2023/12/06 08:47:09;;;;;;;41.93;17.37;;;;;;;;;;5022367;28;20040;-59
2023/12/06 08:49:35;;;;;;;42.50;17.00;;;;;;;;;;5028663;28;20504;-59
2023/12/06 08:52:00;;;;;;;39.58;16.15;;;;;;;;;;5025176;28;20021;-60
2023/12/06 08:54:26;;;;;;;40.10;15.77;;;;;;;;;;5033341;28;20104;-59
2023/12/06 08:56:51;;;;;;;42.60;17.67;;;;;;;;;;5026990;28;20039;-60
2023/12/06 08:59:17;;;;;;;39.03;15.85;;;;;;;;;;5026938;28;20528;-60
2023/12/06 09:01:43;;;;;;;38.47;15.25;;;;;;;;;;5024216;28;20033;-60
2023/12/06 09:04:09;;;;;;;39.97;16.58;;;;;;;;;;5033528;28;20072;-58
2023/12/06 09:06:34;;;;;;;41.65;15.80;;;;;;;;;;5023470;28;20036;-61
2023/12/06 09:09:02;;;;;;;41.15;15.13;;;;;;;;;;5016855;28;20489;-60
2023/12/06 09:11:27;;;;;;;42.90;17.10;;;;;;;;;;5030750;28;20057;-60
2023/12/06 09:13:52;;;;;;;38.45;15.07;;;;;;;;;;5013437;28;20081;-59
2023/12/06 09:16:18;;;;;;;36.97;15.73;;;;;;;;;;5018013;28;20528;-59
2023/12/06 09:18:43;;;;;;;38.35;15.70;;;;;;;;;;5021460;28;20100;-60
2023/12/06 09:21:09;;;;;;;42.37;16.27;;;;;;;;;;5041332;28;20017;-59
2023/12/06 09:23:34;;;;;;;41.03;16.50;;;;;;;;;;5026539;28;20037;-59
2023/12/06 09:26:00;;;;;;;35.08;14.48;;;;;;;;;;5024796;28;20053;-60
2023/12/06 09:28:25;;;;;;;39.80;15.77;;;;;;;;;;5031683;28;20098;-58
2023/12/06 09:30:50;;;;;;;39.13;15.15;;;;;;;;;;5027843;28;20026;-58
2023/12/06 09:33:16;;;;;;;42.67;16.58;;;;;;;;;;5025876;28;20029;-60
2023/12/06 09:35:41;;;;;;;39.08;15.82;;;;;;;;;;5011979;28;20104;-58
2023/12/06 09:38:06;;;;;;;33.78;13.85;;;;;;;;;;5012798;28;20038;-59
2023/12/06 09:40:31;;;;;;;40.97;15.98;;;;;;;;;;5018093;28;20470;-61
2023/12/06 09:43:00;;;;;;;39.67;14.70;;;;;;;;;;5027001;28;20061;-60
2023/12/06 09:45:25;;;;;;;36.80;15.45;;;;;;;;;;5024409;28;20175;-60
2023/12/06 09:47:51;;;;;;;41.60;16.10;;;;;;;;;;5027496;28;20448;-60
2023/12/06 09:50:16;;;;;;;39.35;15.90;;;;;;;;;;5015663;28;20104;-61
2023/12/06 09:52:41;;;;;;;40.87;16.37;;;;;;;;;;5026751;28;20037;-58
2023/12/06 09:55:06;;;;;;;40.10;15.40;;;;;;;;;;5032276;28;20025;-60
2023/12/06 09:57:31;;;;;;;38.93;14.83;;;;;;;;;;5023694;28;20049;-58
2023/12/06 09:59:56;;;;;;;39.22;15.63;;;;;;;;;;5020295;28;20437;-58
2023/12/06 10:02:22;;;;;;;41.22;16.52;;;;;;;;;;5017370;28;20026;-59
2023/12/06 10:04:47;;;;;;;37.83;15.63;;;;;;;;;;5023164;28;20022;-60
2023/12/06 10:07:12;;;;;;;36.78;14.10;;;;;;;;;;5024982;28;20040;-59
2023/12/06 10:09:37;;;;;;;38.13;15.02;;;;;;;;;;5024513;28;20442;-59
2023/12/06 10:12:05;;;;;;;35.15;14.75;;;;;;;;;;5019601;28;20060;-60
2023/12/06 10:14:31;;;;;;;37.22;16.10;;;;;;;;;;5027709;28;20052;-60
2023/12/06 10:16:57;;;;;;;40.75;15.65;;;;;;;;;;5029902;28;20107;-60
2023/12/06 10:19:23;;;;;;;36.25;15.00;;;;;;;;;;5030773;28;20065;-61
2023/12/06 10:21:49;;;;;;;36.78;16.25;;;;;;;;;;5022665;28;20026;-59
2023/12/06 10:24:14;;;;;;;39.28;16.10;;;;;;;;;;5031562;28;20022;-61
2023/12/06 10:26:39;;;;;;;38.10;15.37;;;;;;;;;;5029695;28;20013;-61
2023/12/06 10:29:04;;;;;;;38.77;15.87;;;;;;;;;;5019727;28;20026;-60
2023/12/06 10:31:36;;;;;;;37.17;15.13;;;;;;;;;;5011175;28;20060;-61
2023/12/06 10:34:01;;;;;;;33.80;15.13;;;;;;;;;;5019589;28;20501;-60
2023/12/06 10:36:27;;;;;;;35.95;14.80;;;;;;;;;;5023021;28;20452;-60
2023/12/06 10:38:54;;;;;;;37.15;15.40;;;;;;;;;;5020408;28;20088;-60
2023/12/06 10:41:20;;;;;;;38.00;16.48;;;;;;;;;;5025757;28;20057;-60
2023/12/06 10:43:46;;;;;;;34.15;14.77;;;;;;;;;;5030120;28;20485;-60
2023/12/06 10:46:11;;;;;;;35.00;14.00;;;;;;;;;;5028592;28;20036;-60
2023/12/06 10:48:37;;;;;;;35.72;14.88;;;;;;;;;;5029420;28;20021;-61
2023/12/06 10:51:03;;;;;;;35.30;13.75;;;;;;;;;;5019735;28;20097;-61
2023/12/06 10:53:28;;;;;;;36.20;14.70;;;;;;;;;;5022592;28;20635;-61
2023/12/06 10:55:55;;;;;;;34.13;14.25;;;;;;;;;;5022774;28;20538;-61
2023/12/06 10:58:23;;;;;;;36.42;15.70;;;;;;;;;;5021690;28;20104;-60
2023/12/06 11:00:48;;;;;;;35.03;14.32;;;;;;;;;;5013905;28;20025;-61
2023/12/06 11:03:13;;;;;;;32.15;13.93;;;;;;;;;;5027473;28;20059;-61
2023/12/06 11:05:41;;;;;;;30.30;13.50;;;;;;;;;;5029443;28;20025;-60
2023/12/06 11:08:14;;;;;;;29.23;13.05;;;;;;;;;;5022752;28;20233;-60
2023/12/06 11:11:07;;;;;;;27.83;12.27;;;;;;;;;;5017656;28;20112;-60
2023/12/06 11:13:58;;;;;;;31.08;13.25;;;;;;;;;;5013361;28;20080;-61
2023/12/06 11:16:42;;;;;;;31.38;12.50;;;;;;;;;;5014724;28;20037;-58
2023/12/06 11:19:07;;;;;;;32.33;13.38;;;;;;;;;;5030391;28;20466;-60
2023/12/06 11:21:32;;;;;;;32.22;13.40;;;;;;;;;;5028753;28;20105;-61
2023/12/06 11:23:59;;;;;;;30.08;12.70;;;;;;;;;;5024401;28;20026;-60
2023/12/06 11:26:26;;;;;;;28.05;12.68;;;;;;;;;;5019620;28;20073;-60
2023/12/06 11:28:53;;;;;;;29.17;12.75;;;;;;;;;;5020419;28;20022;-60
2023/12/06 11:31:18;;;;;;;29.60;14.45;;;;;;;;;;5022534;28;20026;-60
2023/12/06 11:33:54;;;;;;;30.83;12.80;;;;;;;;;;5029026;28;20025;-60
2023/12/06 11:36:19;;;;;;;27.98;12.32;;;;;;;;;;5033105;28;20036;-61
2023/12/06 11:38:44;;;;;;;28.10;12.00;;;;;;;;;;5030807;28;20054;-60
2023/12/06 11:41:16;;;;;;;29.60;12.97;;;;;;;;;;5024061;28;20022;-60
2023/12/06 11:43:46;;;;;;;29.48;13.18;;;;;;;;;;5023839;28;20028;-61
2023/12/06 11:46:13;;;;;;;29.60;12.82;;;;;;;;;;5032079;28;20038;-60
2023/12/06 11:48:38;;;;;;;;;;;;;;;;;;5031490;28;20017;-60
2023/12/06 11:51:04;;;;;;;34.07;12.90;;;;;;;;;;5020528;28;19912;-61
2023/12/06 11:53:29;;;;;;;30.55;13.05;;;;;;;;;;5014417;28;20034;-60
2023/12/06 11:55:55;;;;;;;32.20;13.13;;;;;;;;;;5017393;28;20025;-60
2023/12/06 11:58:20;;;;;;;30.80;13.27;;;;;;;;;;5018540;28;20030;-59
2023/12/06 12:00:47;;;;;;;31.20;13.40;;;;;;;;;;5018063;28;20087;-60
2023/12/06 12:03:14;;;;;;;30.40;13.32;;;;;;;;;;5020415;28;20041;-59
2023/12/06 12:05:41;;;;;;;31.65;13.63;;;;;;;;;;5014857;28;20021;-59
2023/12/06 12:08:07;;;;;;;32.70;14.45;;;;;;;;;;5016413;28;20112;-59
2023/12/06 12:10:33;;;;;;;34.72;14.00;;;;;;;;;;5033593;28;20049;-59
2023/12/06 12:12:59;;;;;;;29.80;12.95;;;;;;;;;;5034194;28;20056;-59
2023/12/06 12:15:28;;;;;;;32.47;13.95;;;;;;;;;;5029147;28;20095;-58
2023/12/06 12:17:53;;;;;;;29.48;13.13;;;;;;;;;;5027847;28;20057;-58
2023/12/06 12:20:18;;;;;;;30.35;13.48;;;;;;;;;;5025775;28;20061;-59
2023/12/06 12:22:44;;;;;;;28.93;12.93;;;;;;;;;;5027991;28;20028;-59
2023/12/06 12:25:09;;;;;;;27.83;11.90;;;;;;;;;;5022623;28;20061;-59
2023/12/06 12:27:35;;;;;;;27.90;12.13;;;;;;;;;;5014485;28;20466;-59
2023/12/06 12:30:00;;;;;;;32.95;13.38;;;;;;;;;;5024160;28;20028;-59
2023/12/06 12:32:27;;;;;;;28.38;12.43;;;;;;;;;;5018631;28;20080;-59
2023/12/06 12:34:52;;;;;;;28.60;13.52;;;;;;;;;;5014232;28;20049;-59
2023/12/06 12:37:17;;;;;;;29.37;12.87;;;;;;;;;;5016891;28;20077;-60
2023/12/06 12:39:42;;;;;;;29.77;13.17;;;;;;;;;;5030204;28;20485;-60
2023/12/06 12:42:08;;;;;;;30.70;12.63;;;;;;;;;;5028641;28;20041;-60
2023/12/06 12:44:34;;;;;;;30.13;13.38;;;;;;;;;;5013604;28;20089;-61
2023/12/06 12:46:59;;;;;;;30.98;12.90;;;;;;;;;;5014135;28;20172;-60
2023/12/06 12:49:25;;;;;;;32.95;14.07;;;;;;;;;;5019407;28;20049;-58
2023/12/06 12:51:51;;;;;;;30.73;14.77;;;;;;;;;;5026068;28;20487;-60
2023/12/06 12:54:16;;;;;;;29.70;12.68;;;;;;;;;;5028610;28;20036;-59
2023/12/06 12:56:42;;;;;;;28.98;13.52;;;;;;;;;;5020843;28;20026;-59
2023/12/06 12:59:07;;;;;;;28.50;12.93;;;;;;;;;;5025959;28;20040;-60
2023/12/06 13:01:32;;;;;;;29.17;12.68;;;;;;;;;;5024390;28;20392;-60
2023/12/06 13:03:58;;;;;;;30.80;13.00;;;;;;;;;;5013998;28;20029;-60
2023/12/06 13:06:23;;;;;;;31.13;13.27;;;;;;;;;;5013728;28;20029;-60
2023/12/06 13:08:53;;;;;;;27.20;12.90;;;;;;;;;;5018302;28;20042;-59
2023/12/06 13:11:19;;;;;;;27.27;12.93;;;;;;;;;;5032699;28;20029;-60
2023/12/06 13:13:44;;;;;;;32.17;14.00;;;;;;;;;;5032838;28;20075;-60
2023/12/06 13:16:09;;;;;;;33.23;13.53;;;;;;;;;;5029839;28;20021;-59
2023/12/06 13:18:37;;;;;;;32.17;12.53;;;;;;;;;;5032080;28;21050;-60
2023/12/06 13:21:03;;;;;;;35.15;18.02;;;;;;;;;;5021290;28;20017;-60
2023/12/06 13:23:28;;;;;;;34.00;18.50;;;;;;;;;;5021194;28;20025;-60
2023/12/06 13:25:53;;;;;;;30.53;14.17;;;;;;;;;;5022707;28;20022;-60
2023/12/06 13:28:18;;;;;;;30.97;13.67;;;;;;;;;;5025470;28;20036;-60
2023/12/06 13:30:45;;;;;;;30.02;12.90;;;;;;;;;;5022389;28;20397;-61
2023/12/06 13:33:10;;;;;;;29.92;12.45;;;;;;;;;;5012700;28;20034;-60
2023/12/06 13:35:35;;;;;;;30.38;13.43;;;;;;;;;;5023051;28;20121;-60
2023/12/06 13:38:02;;;;;;;31.10;13.03;;;;;;;;;;5016710;28;20030;-60
2023/12/06 13:40:27;;;;;;;31.92;15.68;;;;;;;;;;5024597;28;20026;-58
2023/12/06 13:42:52;;;;;;;31.30;13.60;;;;;;;;;;5031418;28;20025;-60
2023/12/06 13:45:17;;;;;;;32.43;13.60;;;;;;;;;;5032443;28;20107;-60
2023/12/06 13:47:42;;;;;;;31.95;14.82;;;;;;;;;;5032384;28;20025;-60
2023/12/06 13:50:08;;;;;;;31.02;13.32;;;;;;;;;;5022886;28;20365;-59
2023/12/06 13:52:33;;;;;;;32.35;12.68;;;;;;;;;;5022091;28;20168;-59
2023/12/06 13:54:58;;;;;;;33.95;16.20;;;;;;;;;;5020422;28;20084;-59
2023/12/06 13:57:23;;;;;;;31.63;14.47;;;;;;;;;;5013208;28;20045;-59
2023/12/06 13:59:49;;;;;;;33.92;14.20;;;;;;;;;;5019797;28;20025;-60
2023/12/06 14:02:14;;;;;;;29.27;13.57;;;;;;;;;;5024450;28;20087;-58
2023/12/06 14:04:39;;;;;;;30.95;13.30;;;;;;;;;;5036018;28;20021;-60
2023/12/06 14:07:04;;;;;;;30.45;13.32;;;;;;;;;;5042081;28;20048;-60
2023/12/06 14:09:30;;;;;;;34.70;14.40;;;;;;;;;;5028687;28;20389;-61